sensor_id;sensor_type;location;lat;lon;timestamp;P1;durP1;ratioP1;P2;durP2;ratioP2
20758;SDS011;10539;53.686;9.158;2023-06-04T00:01:20;8.73;;;2.53;;
20758;SDS011;10539;53.686;9.158;2023-06-04T00:03:46;8.23;;;2.40;;
20758;SDS011;10539;53.686;9.158;2023-06-04T00:06:12;7.10;;;2.47;;
20758;SDS011;10539;53.686;9.158;2023-06-04T00:08:38;6.80;;;2.40;;
20758;SDS011;10539;53.686;9.158;2023-06-04T00:11:04;10.83;;;2.80;;
20758;SDS011;10539;53.686;9.158;2023-06-04T00:13:29;8.03;;;2.60;;
20758;SDS011;10539;53.686;9.158;2023-06-04T00:15:55;5.97;;;2.87;;
20758;SDS011;10539;53.686;9.158;2023-06-04T00:18:21;6.10;;;3.00;;
20758;SDS011;10539;53.686;9.158;2023-06-04T00:20:47;9.47;;;2.80;;
20758;SDS011;10539;53.686;9.158;2023-06-04T00:23:12;5.90;;;2.63;;
20758;SDS011;10539;53.686;9.158;2023-06-04T00:25:38;9.07;;;2.77;;
20758;SDS011;10539;53.686;9.158;2023-06-04T00:28:04;6.43;;;2.90;;
20758;SDS011;10539;53.686;9.158;2023-06-04T00:30:29;6.03;;;2.50;;
20758;SDS011;10539;53.686;9.158;2023-06-04T00:32:56;8.27;;;2.90;;
20758;SDS011;10539;53.686;9.158;2023-06-04T00:35:21;15.67;;;3.07;;
20758;SDS011;10539;53.686;9.158;2023-06-04T00:37:47;6.83;;;3.27;;
20758;SDS011;10539;53.686;9.158;2023-06-04T00:40:13;6.87;;;2.60;;
20758;SDS011;10539;53.686;9.158;2023-06-04T00:42:39;10.63;;;3.37;;
20758;SDS011;10539;53.686;9.158;2023-06-04T00:45:05;10.67;;;3.57;;
20758;SDS011;10539;53.686;9.158;2023-06-04T00:47:34;8.30;;;2.83;;
20758;SDS011;10539;53.686;9.158;2023-06-04T00:50:00;9.83;;;3.20;;
20758;SDS011;10539;53.686;9.158;2023-06-04T00:52:26;6.57;;;2.80;;
20758;SDS011;10539;53.686;9.158;2023-06-04T00:54:52;7.73;;;3.30;;
20758;SDS011;10539;53.686;9.158;2023-06-04T00:57:20;5.20;;;2.53;;
20758;SDS011;10539;53.686;9.158;2023-06-04T00:59:49;9.10;;;2.97;;
20758;SDS011;10539;53.686;9.158;2023-06-04T01:02:16;12.03;;;3.33;;
20758;SDS011;10539;53.686;9.158;2023-06-04T01:07:35;7.37;;;3.00;;
20758;SDS011;10539;53.686;9.158;2023-06-04T01:10:02;9.70;;;3.50;;
20758;SDS011;10539;53.686;9.158;2023-06-04T01:12:28;9.00;;;3.37;;
20758;SDS011;10539;53.686;9.158;2023-06-04T01:14:54;11.17;;;3.40;;
20758;SDS011;10539;53.686;9.158;2023-06-04T01:22:35;6.07;;;3.60;;
20758;SDS011;10539;53.686;9.158;2023-06-04T01:25:02;10.53;;;3.53;;
20758;SDS011;10539;53.686;9.158;2023-06-04T01:27:30;9.33;;;3.87;;
20758;SDS011;10539;53.686;9.158;2023-06-04T01:29:57;8.37;;;4.17;;
20758;SDS011;10539;53.686;9.158;2023-06-04T01:32:23;7.47;;;3.97;;
20758;SDS011;10539;53.686;9.158;2023-06-04T01:34:51;12.70;;;4.23;;
20758;SDS011;10539;53.686;9.158;2023-06-04T01:37:17;15.83;;;5.80;;
20758;SDS011;10539;53.686;9.158;2023-06-04T01:39:43;11.07;;;6.53;;
20758;SDS011;10539;53.686;9.158;2023-06-04T01:42:11;11.07;;;6.60;;
20758;SDS011;10539;53.686;9.158;2023-06-04T01:44:37;8.63;;;5.13;;
20758;SDS011;10539;53.686;9.158;2023-06-04T01:47:02;10.03;;;4.60;;
20758;SDS011;10539;53.686;9.158;2023-06-04T01:49:28;11.90;;;4.77;;
20758;SDS011;10539;53.686;9.158;2023-06-04T01:51:54;10.10;;;4.90;;
20758;SDS011;10539;53.686;9.158;2023-06-04T01:54:21;9.13;;;4.87;;
20758;SDS011;10539;53.686;9.158;2023-06-04T01:56:47;16.57;;;5.27;;
20758;SDS011;10539;53.686;9.158;2023-06-04T01:59:13;11.37;;;5.70;;
20758;SDS011;10539;53.686;9.158;2023-06-04T02:01:41;11.27;;;4.77;;
20758;SDS011;10539;53.686;9.158;2023-06-04T02:04:07;12.20;;;5.80;;
20758;SDS011;10539;53.686;9.158;2023-06-04T02:06:33;14.13;;;5.17;;
20758;SDS011;10539;53.686;9.158;2023-06-04T02:08:58;12.30;;;4.97;;
20758;SDS011;10539;53.686;9.158;2023-06-04T02:11:25;11.50;;;5.00;;
20758;SDS011;10539;53.686;9.158;2023-06-04T02:13:51;11.67;;;5.57;;
20758;SDS011;10539;53.686;9.158;2023-06-04T02:16:17;14.13;;;5.57;;
20758;SDS011;10539;53.686;9.158;2023-06-04T02:18:42;11.90;;;5.17;;
20758;SDS011;10539;53.686;9.158;2023-06-04T02:21:10;17.10;;;5.63;;
20758;SDS011;10539;53.686;9.158;2023-06-04T02:23:37;12.73;;;5.20;;
20758;SDS011;10539;53.686;9.158;2023-06-04T02:26:03;8.97;;;5.17;;
20758;SDS011;10539;53.686;9.158;2023-06-04T02:28:28;9.67;;;4.80;;
20758;SDS011;10539;53.686;9.158;2023-06-04T02:30:54;11.70;;;4.90;;
20758;SDS011;10539;53.686;9.158;2023-06-04T02:33:20;13.63;;;5.37;;
20758;SDS011;10539;53.686;9.158;2023-06-04T02:35:45;10.57;;;5.23;;
20758;SDS011;10539;53.686;9.158;2023-06-04T02:38:11;14.23;;;5.30;;
20758;SDS011;10539;53.686;9.158;2023-06-04T02:40:38;13.53;;;5.30;;
20758;SDS011;10539;53.686;9.158;2023-06-04T02:43:03;9.47;;;5.50;;
20758;SDS011;10539;53.686;9.158;2023-06-04T02:45:29;12.83;;;6.07;;
20758;SDS011;10539;53.686;9.158;2023-06-04T02:47:55;11.23;;;5.73;;
20758;SDS011;10539;53.686;9.158;2023-06-04T02:50:21;14.30;;;5.43;;
20758;SDS011;10539;53.686;9.158;2023-06-04T02:52:47;14.13;;;5.40;;
20758;SDS011;10539;53.686;9.158;2023-06-04T02:55:13;11.63;;;4.87;;
20758;SDS011;10539;53.686;9.158;2023-06-04T02:57:40;8.70;;;4.40;;
20758;SDS011;10539;53.686;9.158;2023-06-04T03:00:07;13.30;;;5.13;;
20758;SDS011;10539;53.686;9.158;2023-06-04T03:02:44;12.83;;;5.37;;
20758;SDS011;10539;53.686;9.158;2023-06-04T03:05:12;9.90;;;4.93;;
20758;SDS011;10539;53.686;9.158;2023-06-04T03:07:39;13.63;;;5.60;;
20758;SDS011;10539;53.686;9.158;2023-06-04T03:10:08;9.83;;;5.50;;
20758;SDS011;10539;53.686;9.158;2023-06-04T03:12:36;17.87;;;5.50;;
20758;SDS011;10539;53.686;9.158;2023-06-04T03:15:02;11.77;;;5.50;;
20758;SDS011;10539;53.686;9.158;2023-06-04T03:17:29;12.20;;;4.90;;
20758;SDS011;10539;53.686;9.158;2023-06-04T03:19:56;15.23;;;5.50;;
20758;SDS011;10539;53.686;9.158;2023-06-04T03:22:22;13.00;;;4.80;;
20758;SDS011;10539;53.686;9.158;2023-06-04T03:24:48;12.37;;;5.13;;
20758;SDS011;10539;53.686;9.158;2023-06-04T03:27:13;12.57;;;5.60;;
20758;SDS011;10539;53.686;9.158;2023-06-04T03:29:39;15.17;;;5.60;;
20758;SDS011;10539;53.686;9.158;2023-06-04T03:32:05;17.90;;;5.70;;
20758;SDS011;10539;53.686;9.158;2023-06-04T03:34:32;9.97;;;5.30;;
20758;SDS011;10539;53.686;9.158;2023-06-04T03:36:58;14.37;;;5.00;;
20758;SDS011;10539;53.686;9.158;2023-06-04T03:39:25;11.97;;;5.10;;
20758;SDS011;10539;53.686;9.158;2023-06-04T03:41:52;9.50;;;5.17;;
20758;SDS011;10539;53.686;9.158;2023-06-04T03:44:19;13.43;;;5.23;;
20758;SDS011;10539;53.686;9.158;2023-06-04T03:46:45;12.20;;;5.70;;
20758;SDS011;10539;53.686;9.158;2023-06-04T03:49:13;14.47;;;5.43;;
20758;SDS011;10539;53.686;9.158;2023-06-04T03:51:40;8.90;;;5.30;;
20758;SDS011;10539;53.686;9.158;2023-06-04T03:54:06;11.20;;;5.03;;
20758;SDS011;10539;53.686;9.158;2023-06-04T03:56:32;14.37;;;5.33;;
20758;SDS011;10539;53.686;9.158;2023-06-04T03:59:00;11.63;;;5.40;;
20758;SDS011;10539;53.686;9.158;2023-06-04T04:01:26;11.90;;;5.60;;
20758;SDS011;10539;53.686;9.158;2023-06-04T04:03:52;16.83;;;5.97;;
20758;SDS011;10539;53.686;9.158;2023-06-04T04:06:18;15.97;;;5.93;;
20758;SDS011;10539;53.686;9.158;2023-06-04T04:08:45;18.33;;;6.13;;
20758;SDS011;10539;53.686;9.158;2023-06-04T04:11:12;13.80;;;5.67;;
20758;SDS011;10539;53.686;9.158;2023-06-04T04:13:40;11.77;;;5.70;;
20758;SDS011;10539;53.686;9.158;2023-06-04T04:16:06;12.40;;;5.77;;
20758;SDS011;10539;53.686;9.158;2023-06-04T04:18:32;22.20;;;6.00;;
20758;SDS011;10539;53.686;9.158;2023-06-04T04:20:59;15.40;;;5.20;;
20758;SDS011;10539;53.686;9.158;2023-06-04T04:23:24;10.93;;;5.93;;
20758;SDS011;10539;53.686;9.158;2023-06-04T04:25:52;11.10;;;4.97;;
20758;SDS011;10539;53.686;9.158;2023-06-04T04:28:19;8.53;;;5.13;;
20758;SDS011;10539;53.686;9.158;2023-06-04T04:30:45;13.53;;;5.27;;
20758;SDS011;10539;53.686;9.158;2023-06-04T04:33:12;11.80;;;4.87;;
20758;SDS011;10539;53.686;9.158;2023-06-04T04:35:41;14.17;;;5.00;;
20758;SDS011;10539;53.686;9.158;2023-06-04T04:38:10;14.67;;;5.77;;
20758;SDS011;10539;53.686;9.158;2023-06-04T04:40:36;13.80;;;5.70;;
20758;SDS011;10539;53.686;9.158;2023-06-04T04:43:02;16.67;;;5.03;;
20758;SDS011;10539;53.686;9.158;2023-06-04T04:45:28;14.87;;;4.97;;
20758;SDS011;10539;53.686;9.158;2023-06-04T04:47:54;13.80;;;5.67;;
20758;SDS011;10539;53.686;9.158;2023-06-04T04:50:20;14.10;;;5.30;;
20758;SDS011;10539;53.686;9.158;2023-06-04T04:52:47;11.57;;;5.53;;
20758;SDS011;10539;53.686;9.158;2023-06-04T04:55:13;15.60;;;5.83;;
20758;SDS011;10539;53.686;9.158;2023-06-04T04:57:44;21.07;;;5.80;;
20758;SDS011;10539;53.686;9.158;2023-06-04T05:00:10;11.80;;;5.50;;
20758;SDS011;10539;53.686;9.158;2023-06-04T05:02:36;11.80;;;5.23;;
20758;SDS011;10539;53.686;9.158;2023-06-04T05:05:03;19.53;;;6.00;;
20758;SDS011;10539;53.686;9.158;2023-06-04T05:07:30;10.53;;;5.63;;
20758;SDS011;10539;53.686;9.158;2023-06-04T05:09:56;14.90;;;6.47;;
20758;SDS011;10539;53.686;9.158;2023-06-04T05:12:24;12.50;;;5.67;;
20758;SDS011;10539;53.686;9.158;2023-06-04T05:14:51;18.47;;;5.40;;
20758;SDS011;10539;53.686;9.158;2023-06-04T05:17:16;15.93;;;6.10;;
20758;SDS011;10539;53.686;9.158;2023-06-04T05:19:47;18.03;;;5.30;;
20758;SDS011;10539;53.686;9.158;2023-06-04T05:22:13;12.87;;;5.43;;
20758;SDS011;10539;53.686;9.158;2023-06-04T05:24:43;18.70;;;5.83;;
20758;SDS011;10539;53.686;9.158;2023-06-04T05:27:09;16.63;;;5.40;;
20758;SDS011;10539;53.686;9.158;2023-06-04T05:29:35;10.13;;;5.53;;
20758;SDS011;10539;53.686;9.158;2023-06-04T05:32:01;15.83;;;5.73;;
20758;SDS011;10539;53.686;9.158;2023-06-04T05:34:27;13.23;;;5.00;;
20758;SDS011;10539;53.686;9.158;2023-06-04T05:36:54;14.57;;;5.13;;
20758;SDS011;10539;53.686;9.158;2023-06-04T05:39:21;14.17;;;4.03;;
20758;SDS011;10539;53.686;9.158;2023-06-04T05:41:48;12.10;;;4.20;;
20758;SDS011;10539;53.686;9.158;2023-06-04T05:44:14;11.90;;;4.10;;
20758;SDS011;10539;53.686;9.158;2023-06-04T05:46:40;12.13;;;3.80;;
20758;SDS011;10539;53.686;9.158;2023-06-04T05:49:06;13.07;;;4.10;;
20758;SDS011;10539;53.686;9.158;2023-06-04T05:51:32;9.00;;;3.60;;
20758;SDS011;10539;53.686;9.158;2023-06-04T05:53:57;7.57;;;3.30;;
20758;SDS011;10539;53.686;9.158;2023-06-04T05:56:23;10.73;;;3.77;;
20758;SDS011;10539;53.686;9.158;2023-06-04T05:58:52;10.60;;;3.70;;
20758;SDS011;10539;53.686;9.158;2023-06-04T06:01:18;11.13;;;3.47;;
20758;SDS011;10539;53.686;9.158;2023-06-04T06:03:45;8.57;;;3.50;;
20758;SDS011;10539;53.686;9.158;2023-06-04T06:06:13;10.23;;;3.50;;
20758;SDS011;10539;53.686;9.158;2023-06-04T06:08:39;11.67;;;3.70;;
20758;SDS011;10539;53.686;9.158;2023-06-04T06:11:05;13.23;;;3.83;;
20758;SDS011;10539;53.686;9.158;2023-06-04T06:13:32;11.57;;;3.53;;
20758;SDS011;10539;53.686;9.158;2023-06-04T06:15:58;12.13;;;3.53;;
20758;SDS011;10539;53.686;9.158;2023-06-04T06:18:23;12.97;;;3.77;;
20758;SDS011;10539;53.686;9.158;2023-06-04T06:20:49;10.13;;;3.13;;
20758;SDS011;10539;53.686;9.158;2023-06-04T06:23:15;15.83;;;3.93;;
20758;SDS011;10539;53.686;9.158;2023-06-04T06:25:41;9.20;;;3.30;;
20758;SDS011;10539;53.686;9.158;2023-06-04T06:28:11;12.13;;;3.10;;
20758;SDS011;10539;53.686;9.158;2023-06-04T06:30:37;11.57;;;3.77;;
20758;SDS011;10539;53.686;9.158;2023-06-04T06:33:02;9.67;;;2.90;;
20758;SDS011;10539;53.686;9.158;2023-06-04T06:35:28;14.40;;;3.40;;
20758;SDS011;10539;53.686;9.158;2023-06-04T06:37:54;10.37;;;3.10;;
20758;SDS011;10539;53.686;9.158;2023-06-04T06:40:20;8.30;;;2.60;;
20758;SDS011;10539;53.686;9.158;2023-06-04T06:42:49;5.20;;;2.60;;
20758;SDS011;10539;53.686;9.158;2023-06-04T06:45:16;10.60;;;3.00;;
20758;SDS011;10539;53.686;9.158;2023-06-04T06:47:45;9.07;;;2.90;;
20758;SDS011;10539;53.686;9.158;2023-06-04T06:50:11;10.07;;;3.13;;
20758;SDS011;10539;53.686;9.158;2023-06-04T06:52:37;11.37;;;2.73;;
20758;SDS011;10539;53.686;9.158;2023-06-04T06:55:04;16.03;;;2.90;;
20758;SDS011;10539;53.686;9.158;2023-06-04T06:57:30;12.37;;;2.83;;
20758;SDS011;10539;53.686;9.158;2023-06-04T06:59:56;11.03;;;3.10;;
20758;SDS011;10539;53.686;9.158;2023-06-04T07:02:22;13.70;;;3.10;;
20758;SDS011;10539;53.686;9.158;2023-06-04T07:04:48;7.33;;;2.47;;
20758;SDS011;10539;53.686;9.158;2023-06-04T07:07:14;10.43;;;2.57;;
20758;SDS011;10539;53.686;9.158;2023-06-04T07:09:39;8.77;;;2.53;;
20758;SDS011;10539;53.686;9.158;2023-06-04T07:12:05;11.80;;;3.13;;
20758;SDS011;10539;53.686;9.158;2023-06-04T07:14:31;7.20;;;2.50;;
20758;SDS011;10539;53.686;9.158;2023-06-04T07:16:57;11.40;;;3.73;;
20758;SDS011;10539;53.686;9.158;2023-06-04T07:19:23;6.07;;;2.60;;
20758;SDS011;10539;53.686;9.158;2023-06-04T07:21:49;12.57;;;2.77;;
20758;SDS011;10539;53.686;9.158;2023-06-04T07:24:15;8.37;;;2.33;;
20758;SDS011;10539;53.686;9.158;2023-06-04T07:26:41;10.70;;;2.87;;
20758;SDS011;10539;53.686;9.158;2023-06-04T07:29:07;9.80;;;2.77;;
20758;SDS011;10539;53.686;9.158;2023-06-04T07:31:32;10.30;;;3.03;;
20758;SDS011;10539;53.686;9.158;2023-06-04T07:33:58;8.30;;;2.80;;
20758;SDS011;10539;53.686;9.158;2023-06-04T07:36:24;7.50;;;2.60;;
20758;SDS011;10539;53.686;9.158;2023-06-04T07:38:50;8.93;;;2.90;;
20758;SDS011;10539;53.686;9.158;2023-06-04T07:41:15;6.50;;;2.40;;
20758;SDS011;10539;53.686;9.158;2023-06-04T07:43:42;6.73;;;2.30;;
20758;SDS011;10539;53.686;9.158;2023-06-04T07:46:08;9.47;;;2.20;;
20758;SDS011;10539;53.686;9.158;2023-06-04T07:48:35;6.13;;;2.30;;
20758;SDS011;10539;53.686;9.158;2023-06-04T07:51:01;6.10;;;2.37;;
20758;SDS011;10539;53.686;9.158;2023-06-04T07:53:27;5.83;;;2.20;;
20758;SDS011;10539;53.686;9.158;2023-06-04T07:55:53;4.73;;;2.13;;
20758;SDS011;10539;53.686;9.158;2023-06-04T07:58:20;8.53;;;2.20;;
20758;SDS011;10539;53.686;9.158;2023-06-04T08:00:45;5.23;;;1.80;;
20758;SDS011;10539;53.686;9.158;2023-06-04T08:03:11;6.30;;;2.00;;
20758;SDS011;10539;53.686;9.158;2023-06-04T08:05:37;6.40;;;1.80;;
20758;SDS011;10539;53.686;9.158;2023-06-04T08:08:03;5.37;;;1.80;;
20758;SDS011;10539;53.686;9.158;2023-06-04T08:10:29;9.67;;;2.03;;
20758;SDS011;10539;53.686;9.158;2023-06-04T08:12:55;4.00;;;1.57;;
20758;SDS011;10539;53.686;9.158;2023-06-04T08:15:21;4.53;;;1.40;;
20758;SDS011;10539;53.686;9.158;2023-06-04T08:17:48;5.57;;;1.47;;
20758;SDS011;10539;53.686;9.158;2023-06-04T08:20:14;5.07;;;1.60;;
20758;SDS011;10539;53.686;9.158;2023-06-04T08:22:43;4.87;;;1.87;;
20758;SDS011;10539;53.686;9.158;2023-06-04T08:25:09;3.33;;;1.40;;
20758;SDS011;10539;53.686;9.158;2023-06-04T08:27:34;4.13;;;1.17;;
20758;SDS011;10539;53.686;9.158;2023-06-04T08:30:00;3.97;;;1.50;;
20758;SDS011;10539;53.686;9.158;2023-06-04T08:32:27;7.37;;;2.10;;
20758;SDS011;10539;53.686;9.158;2023-06-04T08:34:53;4.83;;;1.63;;
20758;SDS011;10539;53.686;9.158;2023-06-04T08:37:20;3.67;;;1.50;;
20758;SDS011;10539;53.686;9.158;2023-06-04T08:39:46;3.47;;;1.47;;
20758;SDS011;10539;53.686;9.158;2023-06-04T08:42:45;5.20;;;1.70;;
20758;SDS011;10539;53.686;9.158;2023-06-04T08:45:07;5.47;;;1.50;;
20758;SDS011;10539;53.686;9.158;2023-06-04T08:47:40;9.30;;;1.80;;
20758;SDS011;10539;53.686;9.158;2023-06-04T08:50:15;3.50;;;1.40;;
20758;SDS011;10539;53.686;9.158;2023-06-04T08:52:43;4.37;;;1.47;;
20758;SDS011;10539;53.686;9.158;2023-06-04T08:55:10;3.67;;;1.57;;
20758;SDS011;10539;53.686;9.158;2023-06-04T08:57:39;5.17;;;1.23;;
20758;SDS011;10539;53.686;9.158;2023-06-04T09:00:05;4.10;;;1.10;;
20758;SDS011;10539;53.686;9.158;2023-06-04T09:02:36;2.73;;;1.23;;
20758;SDS011;10539;53.686;9.158;2023-06-04T09:05:05;3.20;;;1.30;;
20758;SDS011;10539;53.686;9.158;2023-06-04T09:07:36;6.30;;;1.33;;
20758;SDS011;10539;53.686;9.158;2023-06-04T09:10:07;5.23;;;1.20;;
20758;SDS011;10539;53.686;9.158;2023-06-04T09:12:38;4.23;;;1.20;;
20758;SDS011;10539;53.686;9.158;2023-06-04T09:15:07;2.77;;;1.60;;
20758;SDS011;10539;53.686;9.158;2023-06-04T09:17:33;3.13;;;1.33;;
20758;SDS011;10539;53.686;9.158;2023-06-04T09:20:00;5.00;;;1.23;;
20758;SDS011;10539;53.686;9.158;2023-06-04T09:22:35;3.07;;;1.00;;
20758;SDS011;10539;53.686;9.158;2023-06-04T09:25:03;3.57;;;1.10;;
20758;SDS011;10539;53.686;9.158;2023-06-04T09:27:39;2.07;;;1.00;;
20758;SDS011;10539;53.686;9.158;2023-06-04T09:30:08;3.37;;;1.67;;
20758;SDS011;10539;53.686;9.158;2023-06-04T09:32:35;3.50;;;1.23;;
20758;SDS011;10539;53.686;9.158;2023-06-04T09:35:13;4.07;;;1.07;;
20758;SDS011;10539;53.686;9.158;2023-06-04T09:37:39;4.90;;;1.40;;
20758;SDS011;10539;53.686;9.158;2023-06-04T09:40:07;4.50;;;1.47;;
20758;SDS011;10539;53.686;9.158;2023-06-04T09:42:46;3.37;;;1.10;;
20758;SDS011;10539;53.686;9.158;2023-06-04T09:47:58;4.57;;;1.23;;
20758;SDS011;10539;53.686;9.158;2023-06-04T09:50:29;3.93;;;1.00;;
20758;SDS011;10539;53.686;9.158;2023-06-04T09:52:59;3.10;;;1.40;;
20758;SDS011;10539;53.686;9.158;2023-06-04T09:55:27;6.57;;;1.27;;
20758;SDS011;10539;53.686;9.158;2023-06-04T09:57:53;4.43;;;1.50;;
20758;SDS011;10539;53.686;9.158;2023-06-04T10:00:19;4.83;;;1.43;;
20758;SDS011;10539;53.686;9.158;2023-06-04T10:02:48;4.23;;;1.23;;
20758;SDS011;10539;53.686;9.158;2023-06-04T10:05:18;7.80;;;1.63;;
20758;SDS011;10539;53.686;9.158;2023-06-04T10:07:46;5.87;;;1.50;;
20758;SDS011;10539;53.686;9.158;2023-06-04T10:10:16;4.00;;;1.33;;
20758;SDS011;10539;53.686;9.158;2023-06-04T10:12:50;5.17;;;1.30;;
20758;SDS011;10539;53.686;9.158;2023-06-04T10:15:20;3.70;;;1.20;;
20758;SDS011;10539;53.686;9.158;2023-06-04T10:17:46;3.83;;;1.60;;
20758;SDS011;10539;53.686;9.158;2023-06-04T10:20:13;3.23;;;1.50;;
20758;SDS011;10539;53.686;9.158;2023-06-04T10:22:39;3.77;;;1.83;;
20758;SDS011;10539;53.686;9.158;2023-06-04T10:25:09;4.70;;;1.50;;
20758;SDS011;10539;53.686;9.158;2023-06-04T10:27:35;9.43;;;1.67;;
20758;SDS011;10539;53.686;9.158;2023-06-04T10:30:02;3.53;;;1.57;;
20758;SDS011;10539;53.686;9.158;2023-06-04T10:32:29;4.70;;;1.33;;
20758;SDS011;10539;53.686;9.158;2023-06-04T10:34:59;3.80;;;1.77;;
20758;SDS011;10539;53.686;9.158;2023-06-04T10:37:29;2.93;;;1.10;;
20758;SDS011;10539;53.686;9.158;2023-06-04T10:39:56;4.10;;;1.40;;
20758;SDS011;10539;53.686;9.158;2023-06-04T10:42:23;2.83;;;1.30;;
20758;SDS011;10539;53.686;9.158;2023-06-04T10:44:52;4.13;;;1.33;;
20758;SDS011;10539;53.686;9.158;2023-06-04T10:49:53;3.40;;;1.10;;
20758;SDS011;10539;53.686;9.158;2023-06-04T10:52:20;3.40;;;1.40;;
20758;SDS011;10539;53.686;9.158;2023-06-04T10:55:02;3.70;;;1.20;;
20758;SDS011;10539;53.686;9.158;2023-06-04T10:57:32;3.67;;;1.20;;
20758;SDS011;10539;53.686;9.158;2023-06-04T10:59:58;3.70;;;1.50;;
20758;SDS011;10539;53.686;9.158;2023-06-04T11:02:25;2.93;;;1.20;;
20758;SDS011;10539;53.686;9.158;2023-06-04T11:05:02;3.77;;;1.20;;
20758;SDS011;10539;53.686;9.158;2023-06-04T11:08:07;2.93;;;1.27;;
20758;SDS011;10539;53.686;9.158;2023-06-04T11:10:51;5.77;;;1.40;;
20758;SDS011;10539;53.686;9.158;2023-06-04T11:13:22;5.77;;;1.30;;
20758;SDS011;10539;53.686;9.158;2023-06-04T11:15:49;2.30;;;1.10;;
20758;SDS011;10539;53.686;9.158;2023-06-04T11:18:16;3.83;;;1.40;;
20758;SDS011;10539;53.686;9.158;2023-06-04T11:20:58;2.43;;;1.10;;
20758;SDS011;10539;53.686;9.158;2023-06-04T11:23:25;3.07;;;1.60;;
20758;SDS011;10539;53.686;9.158;2023-06-04T11:25:54;4.80;;;1.30;;
20758;SDS011;10539;53.686;9.158;2023-06-04T11:28:20;3.40;;;1.30;;
20758;SDS011;10539;53.686;9.158;2023-06-04T11:30:59;2.50;;;1.17;;
20758;SDS011;10539;53.686;9.158;2023-06-04T11:33:44;4.53;;;1.37;;
20758;SDS011;10539;53.686;9.158;2023-06-04T11:36:11;3.93;;;1.30;;
20758;SDS011;10539;53.686;9.158;2023-06-04T11:39:00;2.00;;;1.33;;
20758;SDS011;10539;53.686;9.158;2023-06-04T11:41:28;3.80;;;1.30;;
20758;SDS011;10539;53.686;9.158;2023-06-04T11:43:55;5.37;;;1.30;;
20758;SDS011;10539;53.686;9.158;2023-06-04T11:46:22;2.00;;;1.20;;
20758;SDS011;10539;53.686;9.158;2023-06-04T11:48:52;6.23;;;1.90;;
20758;SDS011;10539;53.686;9.158;2023-06-04T11:51:19;5.10;;;1.53;;
20758;SDS011;10539;53.686;9.158;2023-06-04T11:53:46;4.93;;;1.43;;
20758;SDS011;10539;53.686;9.158;2023-06-04T11:56:12;3.27;;;1.20;;
20758;SDS011;10539;53.686;9.158;2023-06-04T11:58:38;2.87;;;1.03;;
20758;SDS011;10539;53.686;9.158;2023-06-04T12:01:06;3.60;;;1.20;;
20758;SDS011;10539;53.686;9.158;2023-06-04T12:03:34;3.37;;;1.30;;
20758;SDS011;10539;53.686;9.158;2023-06-04T12:08:44;2.50;;;1.17;;
20758;SDS011;10539;53.686;9.158;2023-06-04T12:11:19;3.13;;;1.37;;
20758;SDS011;10539;53.686;9.158;2023-06-04T12:14:06;3.30;;;1.03;;
20758;SDS011;10539;53.686;9.158;2023-06-04T12:16:35;5.07;;;1.30;;
20758;SDS011;10539;53.686;9.158;2023-06-04T12:19:05;4.90;;;1.30;;
20758;SDS011;10539;53.686;9.158;2023-06-04T12:21:35;1.97;;;1.10;;
20758;SDS011;10539;53.686;9.158;2023-06-04T12:24:13;4.13;;;1.20;;
20758;SDS011;10539;53.686;9.158;2023-06-04T12:26:40;3.70;;;1.10;;
20758;SDS011;10539;53.686;9.158;2023-06-04T12:29:15;2.30;;;0.97;;
20758;SDS011;10539;53.686;9.158;2023-06-04T12:32:02;2.00;;;1.03;;
20758;SDS011;10539;53.686;9.158;2023-06-04T12:34:33;1.87;;;1.20;;
20758;SDS011;10539;53.686;9.158;2023-06-04T12:37:08;2.73;;;1.00;;
20758;SDS011;10539;53.686;9.158;2023-06-04T12:39:47;2.07;;;1.07;;
20758;SDS011;10539;53.686;9.158;2023-06-04T12:42:21;2.80;;;1.00;;
20758;SDS011;10539;53.686;9.158;2023-06-04T12:44:58;3.07;;;1.30;;
20758;SDS011;10539;53.686;9.158;2023-06-04T12:47:27;2.50;;;1.23;;
20758;SDS011;10539;53.686;9.158;2023-06-04T12:50:03;3.90;;;1.13;;
20758;SDS011;10539;53.686;9.158;2023-06-04T12:52:44;2.53;;;1.20;;
20758;SDS011;10539;53.686;9.158;2023-06-04T12:55:21;3.40;;;1.30;;
20758;SDS011;10539;53.686;9.158;2023-06-04T12:58:12;3.27;;;1.20;;
20758;SDS011;10539;53.686;9.158;2023-06-04T13:01:08;2.97;;;1.00;;
20758;SDS011;10539;53.686;9.158;2023-06-04T13:03:36;3.50;;;1.13;;
20758;SDS011;10539;53.686;9.158;2023-06-04T13:06:03;2.97;;;1.03;;
20758;SDS011;10539;53.686;9.158;2023-06-04T13:08:29;3.83;;;1.30;;
20758;SDS011;10539;53.686;9.158;2023-06-04T13:10:58;6.60;;;1.20;;
20758;SDS011;10539;53.686;9.158;2023-06-04T13:13:31;3.80;;;1.10;;
20758;SDS011;10539;53.686;9.158;2023-06-04T13:15:57;3.33;;;1.53;;
20758;SDS011;10539;53.686;9.158;2023-06-04T13:18:26;3.00;;;1.27;;
20758;SDS011;10539;53.686;9.158;2023-06-04T13:20:55;3.67;;;1.30;;
20758;SDS011;10539;53.686;9.158;2023-06-04T13:23:23;3.83;;;1.30;;
20758;SDS011;10539;53.686;9.158;2023-06-04T13:25:51;2.53;;;1.20;;
20758;SDS011;10539;53.686;9.158;2023-06-04T13:28:20;4.53;;;1.43;;
20758;SDS011;10539;53.686;9.158;2023-06-04T13:30:52;3.70;;;1.30;;
20758;SDS011;10539;53.686;9.158;2023-06-04T13:33:28;2.57;;;1.10;;
20758;SDS011;10539;53.686;9.158;2023-06-04T13:35:54;3.00;;;1.20;;
20758;SDS011;10539;53.686;9.158;2023-06-04T13:38:24;3.10;;;1.20;;
20758;SDS011;10539;53.686;9.158;2023-06-04T13:40:55;5.40;;;1.83;;
20758;SDS011;10539;53.686;9.158;2023-06-04T13:43:31;6.63;;;1.50;;
20758;SDS011;10539;53.686;9.158;2023-06-04T13:46:08;2.40;;;1.10;;
20758;SDS011;10539;53.686;9.158;2023-06-04T13:48:40;3.77;;;1.40;;
20758;SDS011;10539;53.686;9.158;2023-06-04T13:51:11;5.50;;;1.50;;
20758;SDS011;10539;53.686;9.158;2023-06-04T13:53:37;7.23;;;1.80;;
20758;SDS011;10539;53.686;9.158;2023-06-04T13:56:16;5.63;;;1.50;;
20758;SDS011;10539;53.686;9.158;2023-06-04T14:02:24;3.50;;;1.43;;
20758;SDS011;10539;53.686;9.158;2023-06-04T14:04:59;3.97;;;1.47;;
20758;SDS011;10539;53.686;9.158;2023-06-04T14:07:40;3.30;;;1.50;;
20758;SDS011;10539;53.686;9.158;2023-06-04T14:10:18;3.53;;;1.63;;
20758;SDS011;10539;53.686;9.158;2023-06-04T14:12:46;3.73;;;1.77;;
20758;SDS011;10539;53.686;9.158;2023-06-04T14:15:34;5.70;;;1.47;;
20758;SDS011;10539;53.686;9.158;2023-06-04T14:18:16;3.43;;;1.47;;
20758;SDS011;10539;53.686;9.158;2023-06-04T14:21:07;2.60;;;1.30;;
20758;SDS011;10539;53.686;9.158;2023-06-04T14:23:35;3.50;;;1.67;;
20758;SDS011;10539;53.686;9.158;2023-06-04T14:26:11;5.17;;;1.50;;
20758;SDS011;10539;53.686;9.158;2023-06-04T14:28:40;3.63;;;1.47;;
20758;SDS011;10539;53.686;9.158;2023-06-04T14:31:15;3.83;;;1.70;;
20758;SDS011;10539;53.686;9.158;2023-06-04T14:33:45;3.23;;;1.43;;
20758;SDS011;10539;53.686;9.158;2023-06-04T14:36:11;2.17;;;1.17;;
20758;SDS011;10539;53.686;9.158;2023-06-04T14:38:37;2.97;;;1.63;;
20758;SDS011;10539;53.686;9.158;2023-06-04T14:41:02;4.13;;;1.47;;
20758;SDS011;10539;53.686;9.158;2023-06-04T14:43:28;5.30;;;1.60;;
20758;SDS011;10539;53.686;9.158;2023-06-04T14:45:54;2.93;;;1.40;;
20758;SDS011;10539;53.686;9.158;2023-06-04T14:48:20;6.57;;;1.70;;
20758;SDS011;10539;53.686;9.158;2023-06-04T14:50:46;2.10;;;1.50;;
20758;SDS011;10539;53.686;9.158;2023-06-04T14:53:18;3.47;;;1.20;;
20758;SDS011;10539;53.686;9.158;2023-06-04T14:55:44;6.27;;;1.30;;
20758;SDS011;10539;53.686;9.158;2023-06-04T14:58:11;3.23;;;1.43;;
20758;SDS011;10539;53.686;9.158;2023-06-04T15:00:37;3.83;;;1.90;;
20758;SDS011;10539;53.686;9.158;2023-06-04T15:03:03;3.33;;;1.47;;
20758;SDS011;10539;53.686;9.158;2023-06-04T15:05:29;5.43;;;2.10;;
20758;SDS011;10539;53.686;9.158;2023-06-04T15:07:56;4.70;;;1.40;;
20758;SDS011;10539;53.686;9.158;2023-06-04T15:10:22;3.10;;;1.60;;